createdAt,value
2018-10-04T00:02:05.789Z,97939.16
2018-10-04T00:04:32.872Z,97938.36
2018-10-04T00:07:00.032Z,97948.31
2018-10-04T00:09:27.219Z,97955.85
2018-10-04T00:11:54.356Z,97948.05
2018-10-04T00:14:21.585Z,97949.80
2018-10-04T00:16:48.768Z,97942.32
2018-10-04T00:19:16.007Z,97946.64
2018-10-04T00:21:43.153Z,97947.26
2018-10-04T00:24:10.271Z,97945.67
2018-10-04T00:26:37.548Z,97948.83
2018-10-04T00:29:04.768Z,97950.66
2018-10-04T00:31:31.975Z,97955.31
2018-10-04T00:33:59.170Z,97953.11
2018-10-04T00:36:26.336Z,97954.56
2018-10-04T00:38:53.456Z,97957.92
2018-10-04T00:41:20.608Z,97961.33
2018-10-04T00:43:47.768Z,97955.84
2018-10-04T00:46:14.988Z,97961.58
2018-10-04T00:48:42.162Z,97962.19
2018-10-04T00:51:09.333Z,97962.30
2018-10-04T00:53:36.513Z,97960.22
2018-10-04T00:56:03.683Z,97955.55
2018-10-04T00:58:30.865Z,97955.61
2018-10-04T01:00:58.032Z,97962.77
2018-10-04T01:03:25.235Z,97961.31
2018-10-04T01:05:52.432Z,97964.39
2018-10-04T01:08:19.631Z,97966.37
2018-10-04T01:10:46.752Z,97961.19
2018-10-04T01:13:13.946Z,97963.27
2018-10-04T01:15:41.120Z,97969.92
2018-10-04T01:18:19.716Z,97968.98
2018-10-04T01:20:46.889Z,97958.79
2018-10-04T01:23:14.028Z,97969.23
2018-10-04T01:25:41.318Z,97960.05
2018-10-04T01:28:08.431Z,97968.67
2018-10-04T01:30:35.651Z,97968.95
2018-10-04T01:33:02.915Z,97967.36
2018-10-04T01:35:30.107Z,97968.64
2018-10-04T01:37:57.316Z,97971.27
2018-10-04T01:40:24.445Z,97967.86
2018-10-04T01:42:51.700Z,97968.63
2018-10-04T01:45:18.812Z,97962.98
2018-10-04T01:47:46.108Z,97964.95
2018-10-04T01:50:13.260Z,97967.13
2018-10-04T01:52:40.421Z,97968.58
2018-10-04T01:55:07.604Z,97972.20
2018-10-04T01:57:34.783Z,97968.44
2018-10-04T02:00:02.137Z,97969.91
2018-10-04T02:02:29.297Z,97969.36
2018-10-04T02:04:56.472Z,97968.06
2018-10-04T02:07:23.661Z,97971.28
2018-10-04T02:09:50.808Z,97969.16
2018-10-04T02:12:17.987Z,97970.61
2018-10-04T02:14:45.268Z,97975.02
2018-10-04T02:17:12.430Z,97979.16
2018-10-04T02:19:39.619Z,97976.81
2018-10-04T02:22:06.783Z,97977.05
2018-10-04T02:24:34.013Z,97983.83
2018-10-04T02:27:01.249Z,97981.92
2018-10-04T02:29:28.453Z,97979.42
2018-10-04T02:31:55.831Z,97972.77
2018-10-04T02:34:23.016Z,97970.58
2018-10-04T02:36:50.160Z,97969.24
2018-10-04T02:39:17.277Z,97973.39
2018-10-04T02:41:44.432Z,97971.07
2018-10-04T02:44:11.601Z,97971.92
2018-10-04T02:46:38.712Z,97977.30
2018-10-04T02:49:05.891Z,97979.33
2018-10-04T02:51:33.268Z,97976.51
2018-10-04T02:54:00.476Z,97976.51
2018-10-04T02:56:33.342Z,97976.63
2018-10-04T02:59:00.489Z,97974.66
2018-10-04T03:01:27.679Z,97969.44
2018-10-04T03:03:54.840Z,97968.96
2018-10-04T03:06:22.004Z,97974.47
2018-10-04T03:08:49.125Z,97974.02
2018-10-04T03:11:16.289Z,97985.09
2018-10-04T03:13:43.457Z,97978.34
2018-10-04T03:16:10.637Z,97976.35
2018-10-04T03:18:37.784Z,97977.68
2018-10-04T03:21:04.959Z,97976.99
2018-10-04T03:23:32.094Z,97973.44
2018-10-04T03:25:59.248Z,97981.91
2018-10-04T03:28:26.464Z,97982.13
2018-10-04T03:30:53.628Z,97979.28
2018-10-04T03:33:20.785Z,97978.14
2018-10-04T03:35:47.969Z,97983.25
2018-10-04T03:38:15.148Z,97982.41
2018-10-04T03:40:42.319Z,97978.02
2018-10-04T03:43:09.452Z,97986.17
2018-10-04T03:45:36.634Z,97979.04
2018-10-04T03:48:03.824Z,97979.98
2018-10-04T03:50:31.004Z,97980.05
2018-10-04T03:52:58.256Z,97980.42
2018-10-04T03:55:25.451Z,97980.46
2018-10-04T03:57:52.661Z,97981.17
2018-10-04T04:00:19.852Z,97978.58
2018-10-04T04:02:47.043Z,97980.25
2018-10-04T04:05:14.240Z,97976.14
2018-10-04T04:07:41.407Z,97976.27
2018-10-04T04:10:08.588Z,97978.95
2018-10-04T04:12:35.729Z,97980.31
2018-10-04T04:15:03.093Z,97983.09
2018-10-04T04:17:30.308Z,97974.61
2018-10-04T04:19:57.512Z,97980.30
2018-10-04T04:22:24.766Z,97978.48
2018-10-04T04:24:51.912Z,97981.78
2018-10-04T04:27:19.046Z,97980.90
2018-10-04T04:29:46.334Z,97989.60
2018-10-04T04:32:13.477Z,97985.69
2018-10-04T04:34:40.672Z,97991.73
2018-10-04T04:37:07.884Z,97983.83
2018-10-04T04:39:34.988Z,97992.73
2018-10-04T04:42:02.142Z,97995.50
2018-10-04T04:44:29.348Z,97996.42
2018-10-04T04:46:56.612Z,97992.34
2018-10-04T04:49:23.767Z,97989.80
2018-10-04T04:51:50.988Z,98003.69
2018-10-04T04:54:37.013Z,97994.02
2018-10-04T04:57:04.177Z,97997.96
2018-10-04T04:59:31.363Z,97994.58
2018-10-04T05:01:58.567Z,97991.11
2018-10-04T05:04:25.720Z,97987.01
2018-10-04T05:06:52.929Z,97998.52
2018-10-04T05:09:20.105Z,97994.44
2018-10-04T05:11:47.284Z,97997.16
2018-10-04T05:14:14.441Z,97996.61
2018-10-04T05:16:41.576Z,97991.67
2018-10-04T05:19:08.784Z,97992.10
2018-10-04T05:21:35.960Z,97984.95
2018-10-04T05:24:03.175Z,97986.92
2018-10-04T05:26:30.351Z,97999.94
2018-10-04T05:28:57.623Z,97994.91
2018-10-04T05:31:24.809Z,97999.97
2018-10-04T05:33:52.040Z,97994.47
2018-10-04T05:36:19.211Z,97999.62
2018-10-04T05:38:46.370Z,98000.73
2018-10-04T05:41:13.588Z,98005.03
2018-10-04T05:43:40.802Z,98000.53
2018-10-04T05:46:08.163Z,98008.28
2018-10-04T05:48:35.492Z,98006.59
2018-10-04T05:51:02.672Z,98008.69
2018-10-04T05:53:29.892Z,98006.86
2018-10-04T05:55:57.047Z,98009.86
2018-10-04T05:58:24.206Z,98007.02
2018-10-04T06:00:51.429Z,98012.71
2018-10-04T06:03:18.591Z,98011.30
2018-10-04T06:05:45.743Z,98014.06
2018-10-04T06:08:12.957Z,98008.84
2018-10-04T06:10:40.097Z,98017.10
2018-10-04T06:13:07.267Z,98014.09
2018-10-04T06:15:34.443Z,98023.87
2018-10-04T06:18:01.625Z,98024.38
2018-10-04T06:20:32.552Z,98026.28
2018-10-04T06:22:59.709Z,98018.73
2018-10-04T06:25:26.922Z,98025.05
2018-10-04T06:27:54.125Z,98029.08
2018-10-04T06:30:21.298Z,98034.55
2018-10-04T06:32:48.580Z,98037.27
2018-10-04T06:35:15.795Z,98040.08
2018-10-04T06:37:42.995Z,98041.00
2018-10-04T06:40:10.181Z,98037.59
2018-10-04T06:42:37.328Z,98044.23
2018-10-04T06:45:04.856Z,98042.87
2018-10-04T06:47:32.064Z,98053.48
2018-10-04T06:49:59.286Z,98047.68
2018-10-04T06:52:26.473Z,98051.33
2018-10-04T06:54:53.652Z,98059.27
2018-10-04T06:57:20.813Z,98049.94
2018-10-04T06:59:48.822Z,98052.24
2018-10-04T07:02:16.341Z,98050.34
2018-10-04T07:04:43.504Z,98053.06
2018-10-04T07:07:10.696Z,98057.80
2018-10-04T07:09:37.865Z,98049.70
2018-10-04T07:12:05.028Z,98052.30
2018-10-04T07:14:32.180Z,98054.21
2018-10-04T07:16:59.340Z,98052.80
2018-10-04T07:19:26.485Z,98047.43
2018-10-04T07:21:53.683Z,98050.34
2018-10-04T07:24:20.917Z,98055.98
2018-10-04T07:26:48.123Z,98052.90
2018-10-04T07:29:15.500Z,98060.61
2018-10-04T07:31:42.764Z,98055.73
2018-10-04T07:34:09.847Z,98055.56
2018-10-04T07:36:36.988Z,98058.47
2018-10-04T07:39:06.375Z,98057.41
2018-10-04T07:41:33.585Z,98057.89
2018-10-04T07:44:00.717Z,98061.31
2018-10-04T07:46:27.907Z,98060.56
2018-10-04T07:48:55.069Z,98068.23
2018-10-04T07:51:22.233Z,98060.87
2018-10-04T07:53:49.396Z,98063.59
2018-10-04T07:56:16.572Z,98066.74
2018-10-04T07:58:43.711Z,98067.00
2018-10-04T08:01:10.849Z,98070.97
2018-10-04T08:03:38.077Z,98068.06
2018-10-04T08:06:05.335Z,98068.61
2018-10-04T08:08:32.460Z,98075.44
2018-10-04T08:10:59.594Z,98067.01
2018-10-04T08:13:26.754Z,98069.38
2018-10-04T08:15:53.924Z,98072.80
2018-10-04T08:18:21.081Z,98061.70
2018-10-04T08:20:48.224Z,98065.91
2018-10-04T08:23:15.494Z,98068.78
2018-10-04T08:25:42.693Z,98069.83
2018-10-04T08:28:10.077Z,98055.63
2018-10-04T08:30:37.275Z,98067.72
2018-10-04T08:33:04.462Z,98059.23
2018-10-04T08:35:31.589Z,98063.89
2018-10-04T08:37:58.768Z,98058.48
2018-10-04T08:40:25.917Z,98061.88
2018-10-04T08:42:53.160Z,98067.20
2018-10-04T08:45:20.351Z,98065.37
2018-10-04T08:47:47.551Z,98062.41
2018-10-04T08:50:14.717Z,98069.89
2018-10-04T08:52:47.593Z,98065.52
2018-10-04T08:55:20.316Z,98061.69
2018-10-04T08:57:47.475Z,98065.56
2018-10-04T09:00:14.635Z,98068.83
2018-10-04T09:02:41.816Z,98064.95
2018-10-04T09:05:09.796Z,98065.37
2018-10-04T09:07:37.051Z,98074.75
2018-10-04T09:10:04.502Z,98076.61
2018-10-04T09:12:31.639Z,98068.90
2018-10-04T09:14:58.852Z,98073.11
2018-10-04T09:17:26.585Z,98070.22
2018-10-04T09:19:53.772Z,98069.16
2018-10-04T09:22:20.954Z,98060.55
2018-10-04T09:24:48.104Z,98067.69
2018-10-04T09:27:15.295Z,98068.66
2018-10-04T09:29:48.228Z,98066.92
2018-10-04T09:32:15.513Z,98071.19
2018-10-04T09:34:42.620Z,98066.89
2018-10-04T09:37:10.123Z,98072.34
2018-10-04T09:39:37.279Z,98066.63
2018-10-04T09:42:04.444Z,98059.19
2018-10-04T09:44:31.644Z,98060.42
2018-10-04T09:47:03.155Z,98052.03
2018-10-04T09:49:30.308Z,98050.16
2018-10-04T09:52:02.984Z,98048.27
2018-10-04T09:54:35.917Z,98051.79
2018-10-04T09:57:03.167Z,98054.38
2018-10-04T09:59:30.336Z,98054.22
2018-10-04T10:02:03.304Z,98050.13
2018-10-04T10:04:30.534Z,98039.94
2018-10-04T10:06:57.714Z,98038.33
2018-10-04T10:09:24.908Z,98036.44
2018-10-04T10:11:52.195Z,98027.75
2018-10-04T10:14:19.389Z,98036.73
2018-10-04T10:16:46.524Z,98035.90
2018-10-04T10:19:13.763Z,98032.48
2018-10-04T10:21:40.945Z,98026.63
2018-10-04T10:24:08.093Z,98024.58
2018-10-04T10:26:35.319Z,98026.14
2018-10-04T10:29:02.520Z,98030.02
2018-10-04T10:31:29.820Z,98026.13
2018-10-04T10:33:57.064Z,98027.25
2018-10-04T10:36:24.297Z,98021.92
2018-10-04T10:38:51.495Z,98023.48
2018-10-04T10:41:18.619Z,98024.14
2018-10-04T10:43:45.808Z,98018.48
2018-10-04T10:46:12.997Z,98018.00
2018-10-04T10:48:40.200Z,98013.41
2018-10-04T10:51:07.390Z,98007.00
2018-10-04T10:53:34.561Z,98001.13
2018-10-04T10:56:01.820Z,98001.20
2018-10-04T10:58:28.962Z,98004.28
2018-10-04T11:00:56.134Z,98002.57
2018-10-04T11:03:23.343Z,98007.89
2018-10-04T11:05:50.532Z,97999.61
2018-10-04T11:08:17.703Z,97995.05
2018-10-04T11:10:44.840Z,97988.18
2018-10-04T11:13:12.079Z,97984.41
2018-10-04T11:15:39.239Z,97988.74
2018-10-04T11:18:06.489Z,97988.91
2018-10-04T11:20:33.573Z,97988.63
2018-10-04T11:23:00.757Z,97984.25
2018-10-04T11:25:27.897Z,97985.34
2018-10-04T11:27:55.088Z,97979.54
2018-10-04T11:30:22.306Z,97968.69
2018-10-04T11:32:49.450Z,97975.59
2018-10-04T11:35:17.079Z,97970.02
2018-10-04T11:37:44.314Z,97957.16
2018-10-04T11:40:12.061Z,97959.84
2018-10-04T11:42:40.525Z,97956.51
2018-10-04T11:45:40.296Z,97953.28
2018-10-04T11:48:09.437Z,97952.26
2018-10-04T11:50:36.586Z,97954.34
2018-10-04T11:53:03.817Z,97941.91
2018-10-04T11:55:31.008Z,97943.78
2018-10-04T11:57:58.260Z,97940.39
2018-10-04T12:00:26.637Z,97947.61
2018-10-04T12:02:54.248Z,97936.70
2018-10-04T12:05:21.808Z,97938.48
2018-10-04T12:07:49.024Z,97936.09
2018-10-04T12:10:16.207Z,97930.19
2018-10-04T12:12:43.432Z,97929.58
2018-10-04T12:15:10.623Z,97930.81
2018-10-04T12:17:37.869Z,97921.17
2018-10-04T12:20:05.084Z,97928.72
2018-10-04T12:22:32.310Z,97921.72
2018-10-04T12:24:59.457Z,97921.83
2018-10-04T12:27:26.592Z,97921.41
2018-10-04T12:29:53.827Z,97910.52
2018-10-04T12:32:21.014Z,97919.10
2018-10-04T12:34:48.202Z,97912.87
2018-10-04T12:37:15.348Z,97911.40
2018-10-04T12:39:42.928Z,97912.55
2018-10-04T12:42:10.041Z,97907.06
2018-10-04T12:44:37.285Z,97909.33
2018-10-04T12:47:04.448Z,97903.83
2018-10-04T12:49:31.673Z,97900.05
2018-10-04T12:51:58.932Z,97895.02
2018-10-04T12:54:26.339Z,97899.69
2018-10-04T12:56:53.387Z,97892.27
2018-10-04T12:59:20.585Z,97893.08
2018-10-04T13:01:47.724Z,97890.20
2018-10-04T13:04:15.302Z,97895.56
2018-10-04T13:06:42.591Z,97893.66
2018-10-04T13:09:10.273Z,97888.73
2018-10-04T13:11:37.469Z,97885.12
2018-10-04T13:14:05.023Z,97884.41
2018-10-04T13:16:32.181Z,97881.80
2018-10-04T13:18:59.328Z,97885.13
2018-10-04T13:21:26.568Z,97878.19
2018-10-04T13:23:54.101Z,97882.19
2018-10-04T13:26:21.296Z,97884.13
2018-10-04T13:28:48.521Z,97876.80
2018-10-04T13:31:15.713Z,97876.92
2018-10-04T13:33:42.926Z,97876.56
2018-10-04T13:36:10.129Z,97878.70
2018-10-04T13:38:37.320Z,97877.93
2018-10-04T13:41:04.481Z,97867.13
2018-10-04T13:43:31.708Z,97868.46
2018-10-04T13:45:58.846Z,97864.95
2018-10-04T13:48:26.053Z,97859.30
2018-10-04T13:50:53.297Z,97856.87
2018-10-04T13:53:20.474Z,97859.78
2018-10-04T13:55:47.745Z,97860.05
2018-10-04T13:58:14.938Z,97855.28
2018-10-04T14:00:44.629Z,97857.64
2018-10-04T14:03:11.868Z,97853.82
2018-10-04T14:05:39.096Z,97850.85
2018-10-04T14:08:06.335Z,97850.29
2018-10-04T14:10:33.475Z,97842.02
2018-10-04T14:13:00.835Z,97843.67
2018-10-04T14:15:28.060Z,97844.35
2018-10-04T14:17:55.349Z,97850.23
2018-10-04T14:20:22.576Z,97846.94
2018-10-04T14:22:49.965Z,97843.11
2018-10-04T14:25:17.439Z,97840.36
2018-10-04T14:27:44.770Z,97834.66
2018-10-04T14:30:12.025Z,97832.91
2018-10-04T14:32:39.224Z,97823.45
2018-10-04T14:35:06.493Z,97822.78
2018-10-04T14:37:33.787Z,97826.19
2018-10-04T14:40:00.980Z,97819.98
2018-10-04T14:42:28.222Z,97818.19
2018-10-04T14:44:55.469Z,97816.80
2018-10-04T14:47:22.686Z,97817.16
2018-10-04T14:49:49.948Z,97819.27
2018-10-04T14:52:17.217Z,97818.02
2018-10-04T14:54:44.479Z,97817.99
2018-10-04T14:57:11.683Z,97814.81
2018-10-04T14:59:38.941Z,97812.27
2018-10-04T15:02:06.267Z,97806.15
2018-10-04T15:04:33.463Z,97812.55
2018-10-04T15:07:00.716Z,97808.77
2018-10-04T15:09:34.848Z,97808.68
2018-10-04T15:12:02.084Z,97809.52
2018-10-04T15:14:29.319Z,97804.11
2018-10-04T15:16:56.587Z,97803.97
2018-10-04T15:19:23.816Z,97805.05
2018-10-04T15:21:51.109Z,97797.91
2018-10-04T15:24:18.390Z,97799.80
2018-10-04T15:26:45.573Z,97795.48
2018-10-04T15:29:12.800Z,97792.38
2018-10-04T15:31:39.979Z,97796.77
2018-10-04T15:34:07.193Z,97791.96
2018-10-04T15:36:34.415Z,97788.52
2018-10-04T15:39:01.685Z,97791.20
2018-10-04T15:41:28.972Z,97793.53
2018-10-04T15:44:03.095Z,97784.30
2018-10-04T15:46:30.322Z,97782.95
2018-10-04T15:48:57.576Z,97783.17
2018-10-04T15:51:24.757Z,97788.66
2018-10-04T15:53:52.070Z,97781.64
2018-10-04T15:56:19.331Z,97793.50
2018-10-04T15:58:46.533Z,97787.59
2018-10-04T16:01:13.790Z,97788.48
2018-10-04T16:03:43.324Z,97785.76
2018-10-04T16:06:10.654Z,97791.28
2018-10-04T16:08:37.925Z,97787.80
2018-10-04T16:11:05.345Z,97786.92
2018-10-04T16:13:32.618Z,97789.63
2018-10-04T16:15:59.920Z,97787.66
2018-10-04T16:18:27.151Z,97784.66
2018-10-04T16:20:54.418Z,97787.72
2018-10-04T16:23:21.686Z,97782.19
2018-10-04T16:25:48.862Z,97783.97
2018-10-04T16:28:16.038Z,97787.30
2018-10-04T16:30:43.220Z,97781.09
2018-10-04T16:33:10.566Z,97779.08
2018-10-04T16:35:37.760Z,97786.25
2018-10-04T16:38:05.108Z,97778.73
2018-10-04T16:40:32.916Z,97777.12
2018-10-04T16:43:00.176Z,97774.98
2018-10-04T16:45:27.741Z,97771.64
2018-10-04T16:47:55.217Z,97780.86
2018-10-04T16:50:22.453Z,97777.73
2018-10-04T16:52:49.671Z,97782.44
2018-10-04T16:55:16.909Z,97784.44
2018-10-04T16:57:44.165Z,97780.75
2018-10-04T17:00:11.517Z,97784.34
2018-10-04T17:02:38.767Z,97784.12
2018-10-04T17:05:06.023Z,97781.69
2018-10-04T17:07:33.290Z,97788.53
2018-10-04T17:10:00.521Z,97787.98
2018-10-04T17:12:27.749Z,97785.98
2018-10-04T17:14:55.151Z,97795.42
2018-10-04T17:17:22.617Z,97788.08
2018-10-04T17:19:49.877Z,97791.23
2018-10-04T17:22:17.209Z,97786.06
2018-10-04T17:24:44.427Z,97790.73
2018-10-04T17:27:11.630Z,97789.20
2018-10-04T17:29:38.897Z,97790.34
2018-10-04T17:32:06.080Z,97785.78
2018-10-04T17:34:33.229Z,97785.95
2018-10-04T17:37:00.473Z,97787.69
2018-10-04T17:39:27.673Z,97781.25
2018-10-04T17:41:54.864Z,97778.93
2018-10-04T17:44:22.101Z,97782.77
2018-10-04T17:46:49.337Z,97784.17
2018-10-04T17:49:16.562Z,97782.17
2018-10-04T17:51:43.924Z,97777.48
2018-10-04T17:54:11.194Z,97778.45
2018-10-04T17:56:38.422Z,97780.39
2018-10-04T17:59:05.733Z,97779.23
2018-10-04T18:14:32.535Z,97783.94
2018-10-04T18:16:59.824Z,97780.80
2018-10-04T18:19:27.102Z,97782.85
2018-10-04T18:21:54.350Z,97783.55
2018-10-04T18:24:21.631Z,97780.33
2018-10-04T18:26:48.867Z,97780.33
2018-10-04T18:29:16.136Z,97783.19
2018-10-04T18:31:43.426Z,97786.31
2018-10-04T18:34:10.698Z,97785.33
2018-10-04T18:36:38.279Z,97785.81
2018-10-04T18:39:06.882Z,97779.34
2018-10-04T18:41:34.113Z,97790.18
2018-10-04T18:44:01.457Z,97781.02
2018-10-04T18:46:28.723Z,97778.56
2018-10-04T18:48:55.959Z,97781.84
2018-10-04T18:52:48.125Z,97778.13
2018-10-04T18:55:15.148Z,97784.19
2018-10-04T18:57:42.485Z,97784.59
2018-10-04T19:00:09.690Z,97788.28
2018-10-04T19:02:36.908Z,97781.97
2018-10-04T19:05:04.263Z,97783.92
2018-10-04T19:07:31.641Z,97785.22
2018-10-04T19:09:58.992Z,97783.92
2018-10-04T19:12:26.295Z,97774.52
2018-10-04T19:14:53.554Z,97784.86
2018-10-04T19:17:20.808Z,97777.44
2018-10-04T19:19:48.076Z,97778.06
2018-10-04T19:22:15.320Z,97777.05
2018-10-04T19:24:42.528Z,97781.36
2018-10-04T19:27:09.799Z,97779.22
2018-10-04T19:29:37.056Z,97786.98
2018-10-04T19:32:04.269Z,97789.91
2018-10-04T19:34:31.429Z,97790.37
2018-10-04T19:36:58.654Z,97793.33
2018-10-04T19:39:25.843Z,97787.36
2018-10-04T19:41:53.058Z,97787.97
2018-10-04T19:44:20.300Z,97785.38
2018-10-04T19:46:54.425Z,97792.22
2018-10-04T19:49:21.520Z,97793.65
2018-10-04T19:51:48.736Z,97787.52
2018-10-04T19:54:16.804Z,97791.47
2018-10-04T19:56:43.966Z,97796.11
2018-10-04T19:59:11.174Z,97789.80
2018-10-04T20:01:38.388Z,97791.30
2018-10-04T20:04:06.126Z,97794.80
2018-10-04T20:06:33.360Z,97786.91
2018-10-04T20:09:00.524Z,97781.25
2018-10-04T20:11:27.791Z,97789.80
2018-10-04T20:13:54.932Z,97797.83
2018-10-04T20:16:22.085Z,97793.39
2018-10-04T20:18:49.234Z,97799.08
2018-10-04T20:21:16.444Z,97799.20
2018-10-04T20:23:43.630Z,97795.81
2018-10-04T20:26:10.834Z,97798.84
2018-10-04T20:28:38.057Z,97793.58
2018-10-04T20:31:05.263Z,97793.00
2018-10-04T20:33:32.616Z,97799.11
2018-10-04T20:35:59.875Z,97791.53
2018-10-04T20:38:27.002Z,97787.53
2018-10-04T20:40:54.249Z,97797.54
2018-10-04T20:43:21.510Z,97795.57
2018-10-04T20:45:48.847Z,97803.57
2018-10-04T20:48:16.015Z,97794.76
2018-10-04T20:50:43.211Z,97796.92
2018-10-04T20:53:10.428Z,97795.61
2018-10-04T20:55:37.613Z,97791.66
2018-10-04T20:58:04.796Z,97798.56
2018-10-04T21:00:31.964Z,97793.05
2018-10-04T21:02:59.132Z,97802.00
2018-10-04T21:05:26.325Z,97797.34
2018-10-04T21:07:53.521Z,97801.33
2018-10-04T21:10:20.796Z,97790.77
2018-10-04T21:12:47.952Z,97787.66
2018-10-04T21:15:15.129Z,97790.23
2018-10-04T21:17:42.356Z,97798.68
2018-10-04T21:20:09.565Z,97797.09
2018-10-04T21:25:11.025Z,97800.86
2018-10-04T21:27:38.230Z,97804.02
2018-10-04T21:30:06.801Z,97808.45
2018-10-04T21:32:33.935Z,97803.21
2018-10-04T21:35:01.104Z,97808.74
2018-10-04T21:37:28.284Z,97806.09
2018-10-04T21:39:55.483Z,97800.88
2018-10-04T21:42:22.656Z,97798.22
2018-10-04T21:44:49.844Z,97803.23
2018-10-04T21:47:17.040Z,97804.53
2018-10-04T21:49:44.197Z,97803.73
2018-10-04T21:52:11.360Z,97802.95
2018-10-04T21:54:39.468Z,97802.44
2018-10-04T21:57:06.631Z,97808.22
2018-10-04T21:59:33.835Z,97802.17
2018-10-04T22:02:00.998Z,97807.19
2018-10-04T22:04:28.232Z,97799.55
2018-10-04T22:06:55.438Z,97807.69
2018-10-04T22:09:22.655Z,97810.08
2018-10-04T22:11:49.860Z,97798.77
2018-10-04T22:14:17.091Z,97801.15
2018-10-04T22:16:44.297Z,97799.81
2018-10-04T22:19:11.462Z,97804.02
2018-10-04T22:21:38.612Z,97801.14
2018-10-04T22:24:05.852Z,97794.81
2018-10-04T22:26:33.086Z,97796.67
2018-10-04T22:29:00.223Z,97798.25
2018-10-04T22:31:27.444Z,97794.84
2018-10-04T22:33:54.690Z,97791.69
2018-10-04T22:36:21.841Z,97791.14
2018-10-04T22:38:49.036Z,97787.45
2018-10-04T22:41:16.180Z,97789.56
2018-10-04T22:43:43.342Z,97792.52
2018-10-04T22:46:10.540Z,97790.22
2018-10-04T22:48:37.831Z,97783.13
2018-10-04T22:51:05.681Z,97798.13
2018-10-04T22:53:32.935Z,97797.04
2018-10-04T22:56:00.062Z,97796.05
2018-10-04T22:58:27.248Z,97799.44
2018-10-04T23:00:54.532Z,97799.78
2018-10-04T23:03:21.714Z,97802.94
2018-10-04T23:05:48.899Z,97802.15
2018-10-04T23:08:21.000Z,97797.92
2018-10-04T23:10:48.303Z,97795.77
2018-10-04T23:13:15.513Z,97793.66
2018-10-04T23:15:42.683Z,97797.34
2018-10-04T23:18:09.862Z,97797.34
2018-10-04T23:20:37.068Z,97793.66
2018-10-04T23:23:04.247Z,97799.92
2018-10-04T23:25:31.423Z,97793.63
2018-10-04T23:27:58.611Z,97794.68
2018-10-04T23:30:25.863Z,97795.16
2018-10-04T23:32:53.010Z,97791.17
2018-10-04T23:35:20.188Z,97795.69
2018-10-04T23:37:47.398Z,97794.11
2018-10-04T23:40:14.588Z,97793.73
2018-10-04T23:42:41.752Z,97792.00
2018-10-04T23:45:08.868Z,97783.82
2018-10-04T23:47:36.041Z,97788.33
2018-10-04T23:50:03.516Z,97786.20
2018-10-04T23:52:30.767Z,97784.60
2018-10-04T23:54:57.912Z,97785.09
2018-10-04T23:57:25.100Z,97781.16
2018-10-04T23:59:52.265Z,97769.92
